createdAt,value
2022-09-21T00:01:16.216Z,53.63
2022-09-21T00:03:43.944Z,55.45
2022-09-21T00:06:18.960Z,52.97
2022-09-21T00:08:46.657Z,53.03
2022-09-21T00:11:14.894Z,54.55
2022-09-21T00:13:43.436Z,57.22
2022-09-21T00:16:10.277Z,72.25
2022-09-21T00:18:37.437Z,119.10
2022-09-21T00:21:13.192Z,86.80
2022-09-21T00:23:39.895Z,95.15
2022-09-21T00:26:33.514Z,96.95
2022-09-21T00:29:02.407Z,95.22
2022-09-21T00:31:31.071Z,96.22
2022-09-21T00:33:59.118Z,97.95
2022-09-21T00:36:26.505Z,92.60
2022-09-21T00:38:57.162Z,86.82
2022-09-21T00:41:25.164Z,80.10
2022-09-21T00:44:16.378Z,75.47
2022-09-21T00:46:43.775Z,69.18
2022-09-21T00:49:10.439Z,69.03
2022-09-21T00:51:38.251Z,70.53
2022-09-21T00:54:12.262Z,68.18
2022-09-21T00:56:39.160Z,61.92
2022-09-21T00:59:06.350Z,62.65
2022-09-21T01:01:33.207Z,63.63
2022-09-21T01:04:00.713Z,62.08
2022-09-21T01:06:27.329Z,62.92
2022-09-21T01:08:58.998Z,66.20
2022-09-21T01:11:30.680Z,71.30
2022-09-21T01:14:34.914Z,77.50
2022-09-21T01:17:06.890Z,91.97
2022-09-21T01:19:45.917Z,101.13
2022-09-21T01:22:33.062Z,118.90
2022-09-21T01:25:08.273Z,133.52
2022-09-21T01:27:41.557Z,138.95
2022-09-21T01:30:13.944Z,140.90
2022-09-21T01:33:06.831Z,145.75
2022-09-21T01:35:38.402Z,196.48
2022-09-21T01:38:17.694Z,241.00
2022-09-21T01:40:47.982Z,256.88
2022-09-21T01:43:21.851Z,284.40
2022-09-21T01:45:52.854Z,276.33
2022-09-21T01:48:22.315Z,284.95
2022-09-21T01:50:54.193Z,300.92
2022-09-21T01:53:35.854Z,307.50
2022-09-21T01:56:12.871Z,286.08
2022-09-21T01:58:46.465Z,290.08
2022-09-21T02:01:17.539Z,295.23
2022-09-21T02:03:57.293Z,313.70
2022-09-21T02:06:27.166Z,315.00
2022-09-21T02:08:53.755Z,329.92
2022-09-21T02:11:20.566Z,340.15
2022-09-21T02:13:50.343Z,352.70
2022-09-21T02:16:47.807Z,355.00
2022-09-21T02:19:39.079Z,355.52
2022-09-21T02:22:12.662Z,358.30
2022-09-21T02:24:44.230Z,373.35
2022-09-21T02:27:13.565Z,376.35
2022-09-21T02:29:51.677Z,380.83
2022-09-21T02:32:28.047Z,375.63
2022-09-21T02:35:08.013Z,384.25
2022-09-21T02:37:41.492Z,374.23
2022-09-21T02:40:26.373Z,368.80
2022-09-21T02:42:59.267Z,371.27
2022-09-21T02:45:33.141Z,373.15
2022-09-21T02:48:08.763Z,369.38
2022-09-21T02:50:53.804Z,375.92
2022-09-21T02:56:02.995Z,342.15
2022-09-21T02:58:31.014Z,366.17
2022-09-21T03:00:59.438Z,370.13
2022-09-21T03:03:26.320Z,370.15
2022-09-21T03:05:54.791Z,368.20
2022-09-21T03:08:22.052Z,364.90
2022-09-21T03:10:50.102Z,369.33
2022-09-21T03:13:17.866Z,361.13
2022-09-21T03:15:45.547Z,359.17
2022-09-21T03:18:13.070Z,361.55
2022-09-21T03:20:41.455Z,367.25
2022-09-21T03:23:08.196Z,359.33
2022-09-21T03:25:34.783Z,362.17
2022-09-21T03:28:01.522Z,362.45
2022-09-21T03:30:29.274Z,358.52
2022-09-21T03:32:56.176Z,363.58
2022-09-21T03:35:25.346Z,345.45
2022-09-21T03:37:52.217Z,342.95
2022-09-21T03:40:19.472Z,342.85
2022-09-21T03:42:46.061Z,332.05
2022-09-21T03:45:13.233Z,329.02
2022-09-21T03:47:40.337Z,329.90
2022-09-21T03:50:10.209Z,326.40
2022-09-21T03:52:37.875Z,319.33
2022-09-21T03:55:06.612Z,328.27
2022-09-21T03:57:34.443Z,339.33
2022-09-21T04:00:03.804Z,345.00
2022-09-21T04:02:30.977Z,355.85
2022-09-21T04:04:57.745Z,360.88
2022-09-21T04:07:24.291Z,373.75
2022-09-21T04:09:50.799Z,376.05
2022-09-21T04:12:17.309Z,371.98
2022-09-21T04:14:44.223Z,376.10
2022-09-21T04:17:12.056Z,376.75
2022-09-21T04:19:38.766Z,376.85
2022-09-21T04:22:05.336Z,378.13
2022-09-21T04:24:31.890Z,392.23
2022-09-21T04:26:58.383Z,384.90
2022-09-21T04:29:24.863Z,381.85
2022-09-21T04:31:51.366Z,400.73
2022-09-21T04:34:17.879Z,389.48
2022-09-21T04:36:44.457Z,402.95
2022-09-21T04:39:11.027Z,400.35
2022-09-21T04:41:37.615Z,411.52
2022-09-21T04:44:04.335Z,410.02
2022-09-21T04:46:30.916Z,404.58
2022-09-21T04:48:57.444Z,403.02
2022-09-21T04:51:23.937Z,409.85
2022-09-21T04:53:51.226Z,404.48
2022-09-21T04:56:17.961Z,407.80
2022-09-21T04:58:44.517Z,420.38
2022-09-21T05:01:11.803Z,414.83
2022-09-21T05:03:38.983Z,419.52
2022-09-21T05:06:06.201Z,402.65
2022-09-21T05:08:50.979Z,415.90
2022-09-21T05:11:19.147Z,409.90
2022-09-21T05:13:46.528Z,400.00
2022-09-21T05:16:13.649Z,400.50
2022-09-21T05:18:40.550Z,389.20
2022-09-21T05:21:07.445Z,397.73
2022-09-21T05:23:34.089Z,411.25
2022-09-21T05:26:00.822Z,391.25
2022-09-21T05:28:28.053Z,402.30
2022-09-21T05:31:18.644Z,379.45
2022-09-21T05:34:17.574Z,393.50
2022-09-21T05:36:53.660Z,394.85
2022-09-21T05:39:20.709Z,392.48
2022-09-21T05:41:47.399Z,393.02
2022-09-21T05:44:15.098Z,393.40
2022-09-21T05:46:52.739Z,395.33
2022-09-21T05:49:30.866Z,397.48
2022-09-21T05:52:21.342Z,400.20
2022-09-21T05:54:52.513Z,394.17
2022-09-21T05:57:40.155Z,396.63
2022-09-21T06:00:22.820Z,384.92
2022-09-21T06:03:13.300Z,387.00
2022-09-21T06:05:44.285Z,378.05
2022-09-21T06:08:10.777Z,385.02
2022-09-21T06:10:37.357Z,402.40
2022-09-21T06:13:03.929Z,394.90
2022-09-21T06:15:30.713Z,395.13
2022-09-21T06:17:58.430Z,377.48
2022-09-21T06:20:25.153Z,368.08
2022-09-21T06:22:51.677Z,371.77
2022-09-21T06:25:20.115Z,369.85
2022-09-21T06:27:46.856Z,368.55
2022-09-21T06:30:13.596Z,369.35
2022-09-21T06:32:40.194Z,356.42
2022-09-21T06:35:06.973Z,327.70
2022-09-21T06:37:33.525Z,330.85
2022-09-21T06:40:00.052Z,319.05
2022-09-21T06:42:27.886Z,320.45
2022-09-21T06:44:55.619Z,296.98
2022-09-21T06:47:22.126Z,282.13
2022-09-21T06:49:48.728Z,271.05
2022-09-21T06:52:15.198Z,267.20
2022-09-21T06:54:42.421Z,262.40
2022-09-21T06:57:08.961Z,266.75
2022-09-21T06:59:35.455Z,174.02
2022-09-21T07:02:02.078Z,126.45
2022-09-21T07:04:29.447Z,146.57
2022-09-21T07:06:55.918Z,156.15
2022-09-21T07:12:09.137Z,104.47
2022-09-21T07:14:35.658Z,91.43
2022-09-21T07:17:02.421Z,95.68
2022-09-21T07:19:28.968Z,74.20
2022-09-21T07:21:55.868Z,78.63
2022-09-21T07:24:22.414Z,73.78
2022-09-21T07:26:49.375Z,62.28
2022-09-21T07:29:15.907Z,58.08
2022-09-21T07:31:45.648Z,56.92
2022-09-21T07:34:12.318Z,48.95
2022-09-21T07:36:38.810Z,48.95
2022-09-21T07:39:05.444Z,42.95
2022-09-21T07:41:32.207Z,51.35
2022-09-21T07:43:58.836Z,42.47
2022-09-21T07:46:25.355Z,36.42
2022-09-21T07:48:54.808Z,41.15
2022-09-21T07:51:22.305Z,40.65
2022-09-21T07:53:48.810Z,33.70
2022-09-21T07:56:17.173Z,32.50
2022-09-21T07:59:02.513Z,31.67
2022-09-21T08:01:30.113Z,34.35
2022-09-21T08:03:58.125Z,26.27
2022-09-21T08:06:27.464Z,58.83
2022-09-21T08:08:57.738Z,32.85
2022-09-21T08:11:27.553Z,25.73
2022-09-21T08:14:04.351Z,52.92
2022-09-21T08:16:32.417Z,28.58
2022-09-21T08:18:59.782Z,51.72
2022-09-21T08:21:26.680Z,73.95
2022-09-21T08:23:53.758Z,88.97
2022-09-21T08:26:20.665Z,24.65
2022-09-21T08:28:49.829Z,58.28
2022-09-21T08:31:19.592Z,50.55
2022-09-21T08:33:47.518Z,33.13
2022-09-21T08:36:14.376Z,30.70
2022-09-21T08:38:40.896Z,23.45
2022-09-21T08:41:20.333Z,21.70
2022-09-21T08:44:03.087Z,32.90
2022-09-21T08:46:32.943Z,30.02
2022-09-21T08:49:11.286Z,28.58
2022-09-21T08:51:46.628Z,31.65
2022-09-21T08:54:21.130Z,30.13
2022-09-21T08:59:31.783Z,35.58
2022-09-21T09:02:30.287Z,28.77
2022-09-21T09:04:59.751Z,31.33
2022-09-21T09:07:59.560Z,33.13
2022-09-21T09:10:47.765Z,35.53
2022-09-21T09:13:32.795Z,44.92
2022-09-21T09:16:23.142Z,54.67
2022-09-21T09:18:55.019Z,74.85
2022-09-21T09:21:29.184Z,63.60
2022-09-21T09:24:03.270Z,89.10
2022-09-21T09:26:39.861Z,72.50
2022-09-21T09:29:24.944Z,72.07
2022-09-21T09:31:54.763Z,65.97
2022-09-21T09:34:39.100Z,66.13
2022-09-21T09:37:16.498Z,68.03
2022-09-21T09:39:46.653Z,58.92
2022-09-21T09:42:39.978Z,74.72
2022-09-21T09:45:47.952Z,57.95
2022-09-21T09:48:32.567Z,59.38
2022-09-21T09:53:26.891Z,34.85
2022-09-21T09:55:56.222Z,46.13
2022-09-21T09:58:41.675Z,59.03
2022-09-21T10:01:08.470Z,36.65
2022-09-21T10:03:36.212Z,53.50
2022-09-21T10:06:02.866Z,42.40
2022-09-21T10:08:49.595Z,39.17
2022-09-21T10:11:17.350Z,41.70
2022-09-21T10:13:47.109Z,40.42
2022-09-21T10:16:19.182Z,34.97
2022-09-21T10:18:47.792Z,36.60
2022-09-21T10:21:26.812Z,36.88
2022-09-21T10:23:59.336Z,42.35
2022-09-21T10:26:51.397Z,38.38
2022-09-21T10:29:23.926Z,41.20
2022-09-21T10:32:18.081Z,44.50
2022-09-21T10:35:07.657Z,42.53
2022-09-21T10:37:41.137Z,48.40
2022-09-21T10:40:19.904Z,56.47
2022-09-21T10:42:49.405Z,57.75
2022-09-21T10:45:24.532Z,61.00
2022-09-21T10:48:06.735Z,65.72
2022-09-21T10:50:36.297Z,66.57
2022-09-21T10:53:19.072Z,65.80
2022-09-21T10:56:15.977Z,60.00
2022-09-21T10:59:13.899Z,50.88
2022-09-21T11:01:50.928Z,95.57
2022-09-21T11:04:26.362Z,68.55
2022-09-21T11:07:01.262Z,122.25
2022-09-21T11:09:49.068Z,66.80
2022-09-21T11:12:38.818Z,71.88
2022-09-21T11:15:39.083Z,59.47
2022-09-21T11:18:36.342Z,53.95
2022-09-21T11:21:27.510Z,51.65
2022-09-21T11:24:05.916Z,42.95
2022-09-21T11:26:59.231Z,48.42
2022-09-21T11:29:47.420Z,40.83
2022-09-21T11:32:13.849Z,51.58
2022-09-21T11:34:55.170Z,50.20
2022-09-21T11:37:37.051Z,47.85
2022-09-21T11:40:24.663Z,43.80
2022-09-21T11:43:15.637Z,54.65
2022-09-21T11:46:01.424Z,41.08
2022-09-21T11:48:35.484Z,39.92
2022-09-21T11:51:38.332Z,47.08
2022-09-21T11:54:42.148Z,48.03
2022-09-21T11:57:52.861Z,34.25
2022-09-21T12:00:23.229Z,30.52
2022-09-21T12:02:59.435Z,37.17
2022-09-21T12:05:46.935Z,30.67
2022-09-21T12:08:30.051Z,16.60
2022-09-21T12:11:18.605Z,14.95
2022-09-21T12:14:09.895Z,14.98
2022-09-21T12:16:48.297Z,14.48
2022-09-21T12:19:40.385Z,14.65
2022-09-21T12:22:13.126Z,15.65
2022-09-21T12:24:46.412Z,14.70
2022-09-21T12:27:33.883Z,13.23
2022-09-21T12:30:21.763Z,13.98
2022-09-21T12:32:50.396Z,14.32
2022-09-21T12:35:22.346Z,14.95
2022-09-21T12:38:04.954Z,15.02
2022-09-21T12:41:10.178Z,14.70
2022-09-21T12:43:47.029Z,17.77
2022-09-21T12:46:30.120Z,16.42
2022-09-21T12:49:00.705Z,15.52
2022-09-21T12:51:36.919Z,16.45
2022-09-21T12:54:20.913Z,15.90
2022-09-21T12:57:23.173Z,16.23
2022-09-21T13:00:09.783Z,16.85
2022-09-21T13:05:09.414Z,15.35
2022-09-21T13:08:10.143Z,16.65
2022-09-21T13:10:42.615Z,16.10
2022-09-21T13:13:42.898Z,15.80
2022-09-21T13:16:24.623Z,15.50
2022-09-21T13:19:00.528Z,14.85
2022-09-21T13:21:32.356Z,14.70
2022-09-21T13:24:02.283Z,14.45
2022-09-21T13:26:44.049Z,15.07
2022-09-21T13:29:19.370Z,14.82
2022-09-21T13:31:57.776Z,13.40
2022-09-21T13:34:35.113Z,13.52
2022-09-21T13:37:20.934Z,13.05
2022-09-21T13:40:02.943Z,12.40
2022-09-21T13:42:29.484Z,11.50
2022-09-21T13:45:00.879Z,11.70
2022-09-21T13:47:30.471Z,11.30
2022-09-21T13:50:00.657Z,11.00
2022-09-21T13:52:52.034Z,10.98
2022-09-21T13:55:27.568Z,10.13
2022-09-21T13:57:56.812Z,10.65
2022-09-21T14:00:23.289Z,10.32
2022-09-21T14:02:54.763Z,10.05
2022-09-21T14:05:39.718Z,10.30
2022-09-21T14:08:15.597Z,10.63
2022-09-21T14:10:56.772Z,11.05
2022-09-21T14:13:37.342Z,11.15
2022-09-21T14:16:34.690Z,10.38
2022-09-21T14:19:02.902Z,11.70
2022-09-21T14:21:29.866Z,10.48
2022-09-21T14:24:19.245Z,10.27
2022-09-21T14:26:45.674Z,10.40
2022-09-21T14:29:31.958Z,10.73
2022-09-21T14:32:01.682Z,10.48
2022-09-21T14:34:36.769Z,10.57
2022-09-21T14:37:09.655Z,10.30
2022-09-21T14:39:40.737Z,11.00
2022-09-21T14:42:15.883Z,10.60
2022-09-21T14:44:42.608Z,11.60
2022-09-21T14:47:47.440Z,10.93
2022-09-21T14:50:21.709Z,12.05
2022-09-21T14:53:39.257Z,11.85
2022-09-21T14:56:29.897Z,11.90
2022-09-21T14:58:56.347Z,12.85
2022-09-21T15:01:31.480Z,12.57
2022-09-21T15:04:35.655Z,13.45
2022-09-21T15:07:45.149Z,12.73
2022-09-21T15:10:44.242Z,13.25
2022-09-21T15:13:20.298Z,13.15
2022-09-21T15:16:07.252Z,12.60
2022-09-21T15:18:40.901Z,13.38
2022-09-21T15:21:29.300Z,12.60
2022-09-21T15:23:56.713Z,13.35
2022-09-21T15:26:29.262Z,13.30
2022-09-21T15:29:15.671Z,13.07
2022-09-21T15:31:43.584Z,13.40
2022-09-21T15:34:12.239Z,14.30
2022-09-21T15:36:42.036Z,13.50
2022-09-21T15:39:21.508Z,13.50
2022-09-21T15:41:50.660Z,14.63
2022-09-21T15:44:32.461Z,14.20
2022-09-21T15:47:03.091Z,16.20
2022-09-21T15:49:30.517Z,14.32
2022-09-21T15:52:05.723Z,15.85
2022-09-21T15:54:52.271Z,14.15
2022-09-21T15:57:38.919Z,15.30
2022-09-21T16:00:22.819Z,16.17
2022-09-21T16:03:04.220Z,15.30
2022-09-21T16:05:55.635Z,16.40
2022-09-21T16:08:37.174Z,18.45
2022-09-21T16:11:18.807Z,18.58
2022-09-21T16:14:16.088Z,20.65
2022-09-21T16:17:04.090Z,20.63
2022-09-21T16:19:42.526Z,19.95
2022-09-21T16:22:14.236Z,23.48
2022-09-21T16:24:55.419Z,20.02
2022-09-21T16:27:28.140Z,19.73
2022-09-21T16:29:56.603Z,20.70
2022-09-21T16:32:24.047Z,21.80
2022-09-21T16:34:53.142Z,20.38
2022-09-21T16:37:25.360Z,19.73
2022-09-21T16:39:53.969Z,22.80
2022-09-21T16:42:22.200Z,23.10
2022-09-21T16:44:49.795Z,21.80
2022-09-21T16:47:27.534Z,23.98
2022-09-21T16:49:56.973Z,29.52
2022-09-21T16:52:24.228Z,33.10
2022-09-21T16:54:51.227Z,33.83
2022-09-21T16:57:18.563Z,33.35
2022-09-21T16:59:45.265Z,37.53
2022-09-21T17:02:14.117Z,40.45
2022-09-21T17:04:41.191Z,52.70
2022-09-21T17:07:11.081Z,56.60
2022-09-21T17:09:40.138Z,60.08
2022-09-21T17:12:09.115Z,58.63
2022-09-21T17:14:37.192Z,61.17
2022-09-21T17:17:11.444Z,66.70
2022-09-21T17:22:06.819Z,76.38
2022-09-21T17:24:49.812Z,83.80
2022-09-21T17:27:20.001Z,97.10
2022-09-21T17:29:49.790Z,93.10
2022-09-21T17:32:21.415Z,90.70
2022-09-21T17:34:55.636Z,90.57
2022-09-21T17:37:22.157Z,85.20
2022-09-21T17:39:48.721Z,88.07
2022-09-21T17:42:19.305Z,93.35
2022-09-21T17:44:55.239Z,88.22
2022-09-21T17:47:25.610Z,88.88
2022-09-21T17:49:52.401Z,81.72
2022-09-21T17:52:41.876Z,76.22
2022-09-21T17:55:11.991Z,72.97
2022-09-21T17:58:02.394Z,68.03
2022-09-21T18:00:48.071Z,57.28
2022-09-21T18:03:22.113Z,53.28
2022-09-21T18:05:50.789Z,52.55
2022-09-21T18:08:17.815Z,54.17
2022-09-21T18:10:57.212Z,54.83
2022-09-21T18:14:04.744Z,52.13
2022-09-21T18:16:41.275Z,46.95
2022-09-21T18:19:32.884Z,44.20
2022-09-21T18:22:15.059Z,43.38
2022-09-21T18:24:42.025Z,41.60
2022-09-21T18:27:11.777Z,39.28
2022-09-21T18:29:41.431Z,37.83
2022-09-21T18:32:41.124Z,35.50
2022-09-21T18:35:23.722Z,31.30
2022-09-21T18:38:20.478Z,28.92
2022-09-21T18:41:12.168Z,28.73
2022-09-21T18:44:00.605Z,29.50
2022-09-21T18:46:38.263Z,31.85
2022-09-21T18:49:29.019Z,35.38
2022-09-21T18:52:27.804Z,33.92
2022-09-21T18:54:54.463Z,35.90
2022-09-21T18:57:23.041Z,42.35
2022-09-21T18:59:50.310Z,49.95
2022-09-21T19:02:20.101Z,47.00
2022-09-21T19:04:48.602Z,50.63
2022-09-21T19:07:29.611Z,52.88
2022-09-21T19:09:58.996Z,49.58
2022-09-21T19:12:47.224Z,48.47
2022-09-21T19:16:06.960Z,45.95
2022-09-21T19:18:56.434Z,41.95
2022-09-21T19:21:34.369Z,38.63
2022-09-21T19:24:06.944Z,35.22
2022-09-21T19:26:47.538Z,33.47
2022-09-21T19:29:23.051Z,32.83
2022-09-21T19:31:49.722Z,33.65
2022-09-21T19:34:19.190Z,31.70
2022-09-21T19:36:49.702Z,30.45
2022-09-21T19:39:16.541Z,31.67
2022-09-21T19:42:07.587Z,33.58
2022-09-21T19:44:52.403Z,36.55
2022-09-21T19:47:35.894Z,40.80
2022-09-21T19:50:26.549Z,43.40
2022-09-21T19:53:13.394Z,47.95
2022-09-21T19:56:00.091Z,52.75
2022-09-21T19:58:45.447Z,64.85
2022-09-21T20:01:17.004Z,58.40
2022-09-21T20:03:46.199Z,67.28
2022-09-21T20:06:22.826Z,71.38
2022-09-21T20:09:11.147Z,85.20
2022-09-21T20:12:08.065Z,87.13
2022-09-21T20:15:02.181Z,89.28
2022-09-21T20:17:51.322Z,97.03
2022-09-21T20:20:26.403Z,114.28
2022-09-21T20:22:54.143Z,117.25
2022-09-21T20:25:31.340Z,124.68
2022-09-21T20:27:58.510Z,128.38
2022-09-21T20:30:34.613Z,158.18
2022-09-21T20:33:05.298Z,155.07
2022-09-21T20:35:32.003Z,158.27
2022-09-21T20:38:02.274Z,177.00
2022-09-21T20:40:30.149Z,171.35
2022-09-21T20:42:58.223Z,167.43
2022-09-21T20:45:25.410Z,168.98
2022-09-21T20:47:53.585Z,156.88
2022-09-21T20:50:21.034Z,157.48
2022-09-21T20:52:48.015Z,147.40
2022-09-21T20:55:17.378Z,136.35
2022-09-21T20:57:44.587Z,123.28
2022-09-21T21:00:14.649Z,109.85
2022-09-21T21:02:41.467Z,108.43
2022-09-21T21:05:09.502Z,102.40
2022-09-21T21:07:36.501Z,96.47
2022-09-21T21:10:03.539Z,89.07
2022-09-21T21:12:30.515Z,77.45
2022-09-21T21:14:58.659Z,60.75
2022-09-21T21:17:25.345Z,52.17
2022-09-21T21:19:51.885Z,43.88
2022-09-21T21:22:18.436Z,41.55
2022-09-21T21:24:44.946Z,42.13
2022-09-21T21:27:21.004Z,39.90
2022-09-21T21:29:52.950Z,31.27
2022-09-21T21:32:23.820Z,29.95
2022-09-21T21:34:51.407Z,28.40
2022-09-21T21:37:20.245Z,29.55
2022-09-21T21:39:47.825Z,28.45
2022-09-21T21:42:14.743Z,28.33
2022-09-21T21:44:41.726Z,25.65
2022-09-21T21:47:27.867Z,25.30
2022-09-21T21:49:54.800Z,23.85
2022-09-21T21:52:21.273Z,24.10
2022-09-21T21:54:47.789Z,24.70
2022-09-21T21:57:14.963Z,24.17
2022-09-21T21:59:43.172Z,24.75
2022-09-21T22:02:10.731Z,25.13
2022-09-21T22:04:37.474Z,25.73
2022-09-21T22:07:04.291Z,26.50
2022-09-21T22:17:05.246Z,27.33
2022-09-21T22:19:32.982Z,26.45
2022-09-21T22:21:59.551Z,27.38
2022-09-21T22:24:26.107Z,26.35
2022-09-21T22:26:52.611Z,25.83
2022-09-21T22:29:19.085Z,24.75
2022-09-21T22:31:48.389Z,25.60
2022-09-21T22:34:15.662Z,25.73
2022-09-21T22:36:45.719Z,25.13
2022-09-21T22:39:13.021Z,24.90
2022-09-21T22:41:41.548Z,24.05
2022-09-21T22:44:09.224Z,24.27
2022-09-21T22:46:36.845Z,24.88
2022-09-21T22:49:03.744Z,24.92
2022-09-21T22:51:31.211Z,24.88
2022-09-21T22:53:58.212Z,25.75
2022-09-21T22:56:27.111Z,29.85
2022-09-21T22:58:56.427Z,27.95
2022-09-21T23:01:25.647Z,28.17
2022-09-21T23:04:00.985Z,29.65
2022-09-21T23:06:31.742Z,34.97
2022-09-21T23:08:59.162Z,36.95
2022-09-21T23:11:35.058Z,39.35
2022-09-21T23:14:03.367Z,42.05
2022-09-21T23:16:30.536Z,43.47
2022-09-21T23:18:58.131Z,45.47
2022-09-21T23:21:29.819Z,54.42
2022-09-21T23:23:59.939Z,59.60
2022-09-21T23:26:28.527Z,56.42
2022-09-21T23:28:58.186Z,62.55
2022-09-21T23:31:28.556Z,63.80
2022-09-21T23:33:57.522Z,65.18
2022-09-21T23:36:27.224Z,66.47
2022-09-21T23:38:54.460Z,63.47
2022-09-21T23:41:24.074Z,63.80
2022-09-21T23:43:51.648Z,61.47
2022-09-21T23:46:20.981Z,60.85
2022-09-21T23:48:48.146Z,58.78
2022-09-21T23:51:14.845Z,51.22
2022-09-21T23:53:41.996Z,49.65
2022-09-21T23:56:11.429Z,48.97
2022-09-21T23:58:37.896Z,46.80
